Containerships 6 — DABH — position and weather

sailwx.info

Track history (hours):
 
Tides and Currents Weather Stations Pressure Air Temp Water Temp Dewpoint Dewpoint Depression Visibility Wind Speed Wind Dir Waves Ship Positions

Containerships 6

Last reported at 2016-Jun-24 19:33 UTC. Time now 2016-Jun-25 01:49 UTC.
Position N 55°52' E 007°00'.

Length 155 m; beam 21.8 m; draft 8.9 m.

Type: Ship (hazmat cat A). MMSI: 211315096.

Date/timePositionNaut miles runAvg speedWind from/ knotsBaromVisibWave heightAir tempDewpointWater temp
2016-Jun-24 19:33N 55°52' E 007°00'1616.4
2016-Jun-24 18:33N 55°38' E 006°46'1616.3
2016-Jun-24 17:34N 55°24' E 006°31'5216.1
2016-Jun-24 14:21N 54°40' E 005°43'1916.1
2016-Jun-24 13:11N 54°24' E 005°27'1016.0
2016-Jun-24 12:34N 54°15' E 005°19'1616.1
2016-Jun-24 11:33N 54°01' E 005°07'1716.8
2016-Jun-24 10:33N 53°45' E 004°57'1817.3
2016-Jun-24 09:32N 53°29' E 004°46'2118.3
2016-Jun-24 08:24N 53°10' E 004°30'1618.5
2016-Jun-24 07:33N 52°56' E 004°18'5317.6
2016-Jun-24 04:33N 52°05' E 003°57'1414.3
2016-Jun-24 03:34N 51°55' E 004°14'7 7.1
2016-Jun-24 02:34N 51°53' E 004°25'0 0.0
2016-Jun-24 01:33N 51°53' E 004°25'0 0.0
2016-Jun-24 00:34N 51°53' E 004°25'0 0.0
2016-Jun-23 23:34N 51°53' E 004°25'0 0.0
2016-Jun-23 22:33N 51°53' E 004°25'0 0.0
2016-Jun-23 21:34N 51°53' E 004°25'0 0.0
2016-Jun-23 20:34N 51°53' E 004°25'0 0.0
2016-Jun-23 19:33N 51°53' E 004°25'0 0.0
2016-Jun-23 18:33N 51°53' E 004°25'0 0.0
2016-Jun-23 17:34N 51°53' E 004°25'0 0.0
2016-Jun-23 16:34N 51°53' E 004°25'0 0.0
2016-Jun-23 15:33N 51°53' E 004°25'0 0.0
2016-Jun-23 14:34N 51°53' E 004°25'0 0.0
2016-Jun-23 13:34N 51°53' E 004°25'0 0.0
2016-Jun-23 12:34N 51°53' E 004°25'0 0.0
2016-Jun-23 11:34N 51°53' E 004°25'0 0.0
2016-Jun-23 10:34N 51°53' E 004°25'3 2.8
2016-Jun-23 09:34N 51°54' E 004°21'9 8.5
2016-Jun-23 08:34N 51°58' E 004°09'1515.4
2016-Jun-23 07:34N 52°02' E 003°45'8817.5
2016-Jun-23 02:34N 52°51' E 001°45'1514.9
2016-Jun-23 01:34N 53°01' E 001°27'1616.4
2016-Jun-23 00:33N 53°15' E 001°12'1616.3
2016-Jun-22 23:33N 53°29' E 001°00'2516.5
2016-Jun-22 22:04N 53°49' E 000°36'816.4
2016-Jun-22 21:33N 53°55' E 000°26'1717.1
2016-Jun-22 20:33N 54°08' E 000°06'1817.8
2016-Jun-22 19:34N 54°21' W 000°15'1918.1
2016-Jun-22 18:31N 54°34' W 000°38'1818.1
2016-Jun-22 17:31N 54°39' W 001°08'3 0.3
2016-Jun-22 05:28N 54°36' W 001°09'910.1
2016-Jun-22 04:33N 54°43' W 000°60'1716.7
2016-Jun-22 03:33N 54°50' W 000°33'1717.1
2016-Jun-22 02:33N 54°58' W 000°07'22317.0
2016-Jun-21 13:24N 56°38' E 005°47'1516.8
2016-Jun-21 12:30N 56°45' E 006°12'5116.8
2016-Jun-21 09:29N 57°07' E 007°36'8516.7
2016-Jun-21 04:23N 57°40' E 010°02'1315.9
2016-Jun-21 03:32N 57°46' E 010°25'1414.2
2016-Jun-21 02:34N 57°45' E 010°51'1616.4
2016-Jun-21 01:33N 57°35' E 011°15'1716.6
2016-Jun-21 00:34N 57°22' E 011°34'1717.0
2016-Jun-20 23:33N 57°05' E 011°41'1716.9
2016-Jun-20 22:33N 56°49' E 011°51'1616.2
2016-Jun-20 21:33N 56°34' E 011°43'7915.2
2016-Jun-20 16:21N 55°18' E 011°03'1114.1
2016-Jun-20 15:34N 55°07' E 011°03'1616.3
2016-Jun-20 14:34N 54°51' E 010°53'1515.1
2016-Jun-20 13:33N 54°38' E 011°05'1716.9
2016-Jun-20 12:34N 54°31' E 011°31'1615.8
2016-Jun-20 11:33N 54°26' E 011°58'1413.7
2016-Jun-20 10:33N 54°36' E 012°15'2316.5
2016-Jun-20 09:09N 54°49' E 012°48'3117.1
2016-Jun-20 07:22N 54°59' E 013°38'1316.8
2016-Jun-20 06:34N 55°04' E 013°60'1616.1
2016-Jun-20 05:34N 55°15' E 014°20'1616.1
2016-Jun-20 04:34N 55°26' E 014°41'1716.7
2016-Jun-20 03:34N 55°27' E 015°11'1716.7
2016-Jun-20 02:33N 55°28' E 015°40'6716.6
2016-Jun-19 22:31N 55°31' E 017°39'1816.7
2016-Jun-19 21:26N 55°33' E 018°11'3317.3
2016-Jun-19 19:33N 55°37' E 019°08'268 8.9
2016-Jun-18 13:32N 59°34' E 023°01'1616.3
2016-Jun-18 12:34N 59°39' E 023°32'1716.6
2016-Jun-18 11:33N 59°43' E 024°04'1917.0
2016-Jun-18 10:27N 59°50' E 024°38'41 2.1
2016-Jun-17 14:33N 59°59' E 025°58'1919.5
2016-Jun-17 13:34N 60°01' E 026°37'1918.6
2016-Jun-17 12:33N 60°03' E 027°14'2718.1
2016-Jun-17 11:04N 60°09' E 028°07'1019.4
2016-Jun-17 10:33N 60°05' E 028°25'1919.2
2016-Jun-17 09:33N 60°02' E 029°03'1616.0
2016-Jun-17 08:32N 60°01' E 029°35'4 4.0
2016-Jun-17 07:32N 60°00' E 029°43'0 0.0
2016-Jun-17 06:33N 60°00' E 029°43'0 0.0
2016-Jun-17 04:26N 60°00' E 029°43'0 0.0
2016-Jun-17 03:23N 60°00' E 029°43'0 0.0
2016-Jun-17 02:28N 60°00' E 029°43'0 0.0
2016-Jun-17 01:32N 60°00' E 029°43'0 0.0
2016-Jun-17 00:33N 60°00' E 029°43'0 0.0
2016-Jun-16 23:33N 60°00' E 029°43'0 0.0
2016-Jun-16 22:32N 60°00' E 029°43'1 1.2
2016-Jun-16 21:33N 59°59' E 029°43'10 9.9
2016-Jun-16 20:33N 59°55' E 030°01'6 5.9
2016-Jun-16 19:33N 59°53' E 030°12'0 0.0
2016-Jun-16 18:33N 59°53' E 030°12'0 0.0
2016-Jun-16 17:33N 59°53' E 030°12'0 0.0
2016-Jun-16 16:33N 59°53' E 030°12'0 0.0
2016-Jun-16 15:33N 59°53' E 030°12'0 0.0
2016-Jun-16 14:33N 59°53' E 030°12'0 0.0
2016-Jun-16 13:33N 59°53' E 030°12'0 0.0
2016-Jun-16 12:33N 59°53' E 030°12'0 0.0
2016-Jun-16 11:33N 59°53' E 030°12'0 0.0
2016-Jun-16 10:33N 59°53' E 030°12'0 0.0
2016-Jun-16 09:33N 59°53' E 030°12'0 0.0
2016-Jun-16 08:33N 59°53' E 030°12'0 0.0
2016-Jun-16 07:33N 59°53' E 030°12'0 0.0
2016-Jun-16 06:32N 59°53' E 030°12'0 0.0
2016-Jun-16 05:33N 59°53' E 030°12'5 5.0
2016-Jun-16 04:33N 59°55' E 030°03'1111.2
2016-Jun-16 03:33N 59°59' E 029°42'1311.1
2016-Jun-16 02:23N 60°02' E 029°17'1113.1
2016-Jun-16 01:34N 60°02' E 028°55'1312.6
2016-Jun-16 00:34N 60°02' E 028°30'1212.1
2016-Jun-15 23:33N 60°08' E 028°08'1312.5
2016-Jun-15 22:33N 60°10' E 027°44'1313.0
2016-Jun-15 21:33N 60°03' E 027°21'1414.3
2016-Jun-15 20:34N 59°59' E 026°54'1515.0
2016-Jun-15 19:34N 59°58' E 026°24'1515.3
2016-Jun-15 18:34N 59°54' E 025°55'2014.0
2016-Jun-15 17:06N 60°00' E 025°16'7 0.6
2016-Jun-15 04:33N 60°07' E 025°11'1918.9
2016-Jun-15 03:33N 59°51' E 024°50'1918.8
2016-Jun-15 02:33N 59°43' E 024°17'1919.2
2016-Jun-15 01:33N 59°37' E 023°41'2019.3
2016-Jun-15 00:33N 59°30' E 023°04'2319.1
2016-Jun-14 23:19N 59°20' E 022°23'1519.4
2016-Jun-14 22:31N 59°10' E 021°59'  
Track history (hours):
 
Tides and Currents Weather Stations Pressure Air Temp Water Temp Dewpoint Dewpoint Depression Visibility Wind Speed Wind Dir Waves Ship Positions

Containerships 6

Last reported at 2016-Jun-24 19:33 UTC. Time now 2016-Jun-25 01:49 UTC.
Position N 55°52' E 007°00'.

Length 155 m; beam 21.8 m; draft 8.9 m.

Type: Ship (hazmat cat A). MMSI: 211315096.

Date/timePositionNaut miles runAvg speedWind from/ knotsBaromVisibWave heightAir tempDewpointWater temp
2016-Jun-24 19:33N 55°52' E 007°00'1616.4
2016-Jun-24 18:33N 55°38' E 006°46'1616.3
2016-Jun-24 17:34N 55°24' E 006°31'5216.1
2016-Jun-24 14:21N 54°40' E 005°43'1916.1
2016-Jun-24 13:11N 54°24' E 005°27'1016.0
2016-Jun-24 12:34N 54°15' E 005°19'1616.1
2016-Jun-24 11:33N 54°01' E 005°07'1716.8
2016-Jun-24 10:33N 53°45' E 004°57'1817.3
2016-Jun-24 09:32N 53°29' E 004°46'2118.3
2016-Jun-24 08:24N 53°10' E 004°30'1618.5
2016-Jun-24 07:33N 52°56' E 004°18'5317.6
2016-Jun-24 04:33N 52°05' E 003°57'1414.3
2016-Jun-24 03:34N 51°55' E 004°14'7 7.1
2016-Jun-24 02:34N 51°53' E 004°25'0 0.0
2016-Jun-24 01:33N 51°53' E 004°25'0 0.0
2016-Jun-24 00:34N 51°53' E 004°25'0 0.0
2016-Jun-23 23:34N 51°53' E 004°25'0 0.0
2016-Jun-23 22:33N 51°53' E 004°25'0 0.0
2016-Jun-23 21:34N 51°53' E 004°25'0 0.0
2016-Jun-23 20:34N 51°53' E 004°25'0 0.0
2016-Jun-23 19:33N 51°53' E 004°25'0 0.0
2016-Jun-23 18:33N 51°53' E 004°25'0 0.0
2016-Jun-23 17:34N 51°53' E 004°25'0 0.0
2016-Jun-23 16:34N 51°53' E 004°25'0 0.0
2016-Jun-23 15:33N 51°53' E 004°25'0 0.0
2016-Jun-23 14:34N 51°53' E 004°25'0 0.0
2016-Jun-23 13:34N 51°53' E 004°25'0 0.0
2016-Jun-23 12:34N 51°53' E 004°25'0 0.0
2016-Jun-23 11:34N 51°53' E 004°25'0 0.0
2016-Jun-23 10:34N 51°53' E 004°25'3 2.8
2016-Jun-23 09:34N 51°54' E 004°21'9 8.5
2016-Jun-23 08:34N 51°58' E 004°09'1515.4
2016-Jun-23 07:34N 52°02' E 003°45'8817.5
2016-Jun-23 02:34N 52°51' E 001°45'1514.9
2016-Jun-23 01:34N 53°01' E 001°27'1616.4
2016-Jun-23 00:33N 53°15' E 001°12'1616.3
2016-Jun-22 23:33N 53°29' E 001°00'2516.5
2016-Jun-22 22:04N 53°49' E 000°36'816.4
2016-Jun-22 21:33N 53°55' E 000°26'1717.1
2016-Jun-22 20:33N 54°08' E 000°06'1817.8
2016-Jun-22 19:34N 54°21' W 000°15'1918.1
2016-Jun-22 18:31N 54°34' W 000°38'1818.1
2016-Jun-22 17:31N 54°39' W 001°08'3 0.3
2016-Jun-22 05:28N 54°36' W 001°09'910.1
2016-Jun-22 04:33N 54°43' W 000°60'1716.7
2016-Jun-22 03:33N 54°50' W 000°33'1717.1
2016-Jun-22 02:33N 54°58' W 000°07'22317.0
2016-Jun-21 13:24N 56°38' E 005°47'1516.8
2016-Jun-21 12:30N 56°45' E 006°12'5116.8
2016-Jun-21 09:29N 57°07' E 007°36'8516.7
2016-Jun-21 04:23N 57°40' E 010°02'1315.9
2016-Jun-21 03:32N 57°46' E 010°25'1414.2
2016-Jun-21 02:34N 57°45' E 010°51'1616.4
2016-Jun-21 01:33N 57°35' E 011°15'1716.6
2016-Jun-21 00:34N 57°22' E 011°34'1717.0
2016-Jun-20 23:33N 57°05' E 011°41'1716.9
2016-Jun-20 22:33N 56°49' E 011°51'1616.2
2016-Jun-20 21:33N 56°34' E 011°43'7915.2
2016-Jun-20 16:21N 55°18' E 011°03'1114.1
2016-Jun-20 15:34N 55°07' E 011°03'1616.3
2016-Jun-20 14:34N 54°51' E 010°53'1515.1
2016-Jun-20 13:33N 54°38' E 011°05'1716.9
2016-Jun-20 12:34N 54°31' E 011°31'1615.8
2016-Jun-20 11:33N 54°26' E 011°58'1413.7
2016-Jun-20 10:33N 54°36' E 012°15'2316.5
2016-Jun-20 09:09N 54°49' E 012°48'3117.1
2016-Jun-20 07:22N 54°59' E 013°38'1316.8
2016-Jun-20 06:34N 55°04' E 013°60'1616.1
2016-Jun-20 05:34N 55°15' E 014°20'1616.1
2016-Jun-20 04:34N 55°26' E 014°41'1716.7
2016-Jun-20 03:34N 55°27' E 015°11'1716.7
2016-Jun-20 02:33N 55°28' E 015°40'6716.6
2016-Jun-19 22:31N 55°31' E 017°39'1816.7
2016-Jun-19 21:26N 55°33' E 018°11'3317.3
2016-Jun-19 19:33N 55°37' E 019°08'268 8.9
2016-Jun-18 13:32N 59°34' E 023°01'1616.3
2016-Jun-18 12:34N 59°39' E 023°32'1716.6
2016-Jun-18 11:33N 59°43' E 024°04'1917.0
2016-Jun-18 10:27N 59°50' E 024°38'41 2.1
2016-Jun-17 14:33N 59°59' E 025°58'1919.5
2016-Jun-17 13:34N 60°01' E 026°37'1918.6
2016-Jun-17 12:33N 60°03' E 027°14'2718.1
2016-Jun-17 11:04N 60°09' E 028°07'1019.4
2016-Jun-17 10:33N 60°05' E 028°25'1919.2
2016-Jun-17 09:33N 60°02' E 029°03'1616.0
2016-Jun-17 08:32N 60°01' E 029°35'4 4.0
2016-Jun-17 07:32N 60°00' E 029°43'0 0.0
2016-Jun-17 06:33N 60°00' E 029°43'0 0.0
2016-Jun-17 04:26N 60°00' E 029°43'0 0.0
2016-Jun-17 03:23N 60°00' E 029°43'0 0.0
2016-Jun-17 02:28N 60°00' E 029°43'0 0.0
2016-Jun-17 01:32N 60°00' E 029°43'0 0.0
2016-Jun-17 00:33N 60°00' E 029°43'0 0.0
2016-Jun-16 23:33N 60°00' E 029°43'0 0.0
2016-Jun-16 22:32N 60°00' E 029°43'1 1.2
2016-Jun-16 21:33N 59°59' E 029°43'10 9.9
2016-Jun-16 20:33N 59°55' E 030°01'6 5.9
2016-Jun-16 19:33N 59°53' E 030°12'0 0.0
2016-Jun-16 18:33N 59°53' E 030°12'0 0.0
2016-Jun-16 17:33N 59°53' E 030°12'0 0.0
2016-Jun-16 16:33N 59°53' E 030°12'0 0.0
2016-Jun-16 15:33N 59°53' E 030°12'0 0.0
2016-Jun-16 14:33N 59°53' E 030°12'0 0.0
2016-Jun-16 13:33N 59°53' E 030°12'0 0.0
2016-Jun-16 12:33N 59°53' E 030°12'0 0.0
2016-Jun-16 11:33N 59°53' E 030°12'0 0.0
2016-Jun-16 10:33N 59°53' E 030°12'0 0.0
2016-Jun-16 09:33N 59°53' E 030°12'0 0.0
2016-Jun-16 08:33N 59°53' E 030°12'0 0.0
2016-Jun-16 07:33N 59°53' E 030°12'0 0.0
2016-Jun-16 06:32N 59°53' E 030°12'0 0.0
2016-Jun-16 05:33N 59°53' E 030°12'5 5.0
2016-Jun-16 04:33N 59°55' E 030°03'1111.2
2016-Jun-16 03:33N 59°59' E 029°42'1311.1
2016-Jun-16 02:23N 60°02' E 029°17'1113.1
2016-Jun-16 01:34N 60°02' E 028°55'1312.6
2016-Jun-16 00:34N 60°02' E 028°30'1212.1
2016-Jun-15 23:33N 60°08' E 028°08'1312.5
2016-Jun-15 22:33N 60°10' E 027°44'1313.0
2016-Jun-15 21:33N 60°03' E 027°21'1414.3
2016-Jun-15 20:34N 59°59' E 026°54'1515.0
2016-Jun-15 19:34N 59°58' E 026°24'1515.3
2016-Jun-15 18:34N 59°54' E 025°55'2014.0
2016-Jun-15 17:06N 60°00' E 025°16'7 0.6
2016-Jun-15 04:33N 60°07' E 025°11'1918.9
2016-Jun-15 03:33N 59°51' E 024°50'1918.8
2016-Jun-15 02:33N 59°43' E 024°17'1919.2
2016-Jun-15 01:33N 59°37' E 023°41'2019.3
2016-Jun-15 00:33N 59°30' E 023°04'2319.1
2016-Jun-14 23:19N 59°20' E 022°23'1519.4
2016-Jun-14 22:31N 59°10' E 021°59'  

Dump ship's entire track history